KFAR/FAR METAR and TAF weather

Enter ICAO airport designator
Station Type Date Time Source
KFAR METAR 2022/11/26 08:53 UTC NOAA

KFAR 260853Z 20007KT 10SM CLR 02/M02 A2968 RMK AO2 SLP061 T00221017 56015


Station Type Date Time Source
KFAR Decoded METAR 2022/11/26 08:53 UTC NOAA

HECTOR INTERNATIONAL AIRPORT , ND, United States (KFAR) 46-56N 096-49W 277M
Nov 26, 2022 - 03:53 AM EST / 2022.11.26 0853 UTC
Wind: from the SSW (200 degrees) at 8 MPH (7 KT):0
Visibility: 10 mile(s):0
Sky conditions: clear
Temperature: 36.0 F (2.2 C)
Dew Point: 28.9 F (-1.7 C)
Relative Humidity: 75%
Pressure (altimeter): 29.68 in. Hg (1005 hPa)
Pressure tendency: 0.04 inches (1.5 hPa) lower than three hours ago
ob: KFAR 260853Z 20007KT 10SM CLR 02/M02 A2968 RMK AO2 SLP061 T00221017 56015
cycle: 9

Station Type Date Time Source
KFAR TAF 2022/11/26 06:34 UTC NOAA

TAF KFAR 260531Z 2606/2706 20007KT P6SM SCT250 WS020/25035KT
FM260900 19009KT P6SM BKN250 WS020/27035KT
FM261600 31009KT P6SM BKN240
FM261700 33010KT P6SM BKN250
FM262300 31009KT P6SM BKN210

Example: see airport list